sensor_id;sensor_type;location;lat;lon;timestamp;P1;durP1;ratioP1;P2;durP2;ratioP2
1300;SDS011;59099;48.806;9.160;2022-10-31T00:00:30;7.87;;;5.00;;
1300;SDS011;59099;48.806;9.160;2022-10-31T00:02:56;7.37;;;5.00;;
1300;SDS011;59099;48.806;9.160;2022-10-31T00:05:25;6.07;;;5.07;;
1300;SDS011;59099;48.806;9.160;2022-10-31T00:07:53;7.30;;;5.30;;
1300;SDS011;59099;48.806;9.160;2022-10-31T00:10:19;5.17;;;4.33;;
1300;SDS011;59099;48.806;9.160;2022-10-31T00:12:45;7.40;;;4.07;;
1300;SDS011;59099;48.806;9.160;2022-10-31T00:15:10;6.40;;;4.13;;
1300;SDS011;59099;48.806;9.160;2022-10-31T00:17:36;5.77;;;4.60;;
1300;SDS011;59099;48.806;9.160;2022-10-31T00:20:02;8.07;;;5.23;;
1300;SDS011;59099;48.806;9.160;2022-10-31T00:22:28;6.50;;;5.00;;
1300;SDS011;59099;48.806;9.160;2022-10-31T00:24:53;6.30;;;4.83;;
1300;SDS011;59099;48.806;9.160;2022-10-31T00:27:19;8.33;;;4.20;;
1300;SDS011;59099;48.806;9.160;2022-10-31T00:29:45;6.70;;;4.60;;
1300;SDS011;59099;48.806;9.160;2022-10-31T00:32:11;7.97;;;5.50;;
1300;SDS011;59099;48.806;9.160;2022-10-31T00:34:36;7.03;;;5.03;;
1300;SDS011;59099;48.806;9.160;2022-10-31T00:37:05;9.33;;;5.33;;
1300;SDS011;59099;48.806;9.160;2022-10-31T00:39:30;8.50;;;5.07;;
1300;SDS011;59099;48.806;9.160;2022-10-31T00:41:56;7.23;;;4.80;;
1300;SDS011;59099;48.806;9.160;2022-10-31T00:44:22;10.70;;;5.20;;
1300;SDS011;59099;48.806;9.160;2022-10-31T00:46:48;5.03;;;4.53;;
1300;SDS011;59099;48.806;9.160;2022-10-31T00:49:13;6.63;;;4.40;;
1300;SDS011;59099;48.806;9.160;2022-10-31T00:51:39;5.60;;;5.07;;
1300;SDS011;59099;48.806;9.160;2022-10-31T00:54:05;8.93;;;5.07;;
1300;SDS011;59099;48.806;9.160;2022-10-31T00:56:32;8.07;;;5.10;;
1300;SDS011;59099;48.806;9.160;2022-10-31T00:58:58;14.00;;;5.07;;
1300;SDS011;59099;48.806;9.160;2022-10-31T01:01:24;6.80;;;5.53;;
1300;SDS011;59099;48.806;9.160;2022-10-31T01:03:50;5.90;;;4.03;;
1300;SDS011;59099;48.806;9.160;2022-10-31T01:06:16;7.17;;;4.57;;
1300;SDS011;59099;48.806;9.160;2022-10-31T01:08:42;8.93;;;5.23;;
1300;SDS011;59099;48.806;9.160;2022-10-31T01:11:12;7.90;;;4.30;;
1300;SDS011;59099;48.806;9.160;2022-10-31T01:13:44;11.27;;;5.20;;
1300;SDS011;59099;48.806;9.160;2022-10-31T01:16:12;7.40;;;4.30;;
1300;SDS011;59099;48.806;9.160;2022-10-31T01:18:40;6.60;;;4.97;;
1300;SDS011;59099;48.806;9.160;2022-10-31T01:21:08;6.93;;;4.10;;
1300;SDS011;59099;48.806;9.160;2022-10-31T01:23:37;7.33;;;5.07;;
1300;SDS011;59099;48.806;9.160;2022-10-31T01:26:12;5.90;;;4.50;;
1300;SDS011;59099;48.806;9.160;2022-10-31T01:28:43;6.77;;;4.30;;
1300;SDS011;59099;48.806;9.160;2022-10-31T01:31:11;7.80;;;4.67;;
1300;SDS011;59099;48.806;9.160;2022-10-31T01:33:37;7.30;;;4.17;;
1300;SDS011;59099;48.806;9.160;2022-10-31T01:36:17;6.90;;;4.67;;
1300;SDS011;59099;48.806;9.160;2022-10-31T01:38:50;8.83;;;4.60;;
1300;SDS011;59099;48.806;9.160;2022-10-31T01:41:18;6.90;;;4.73;;
1300;SDS011;59099;48.806;9.160;2022-10-31T01:43:47;4.97;;;4.53;;
1300;SDS011;59099;48.806;9.160;2022-10-31T01:46:37;8.80;;;5.27;;
1300;SDS011;59099;48.806;9.160;2022-10-31T01:49:09;6.07;;;4.90;;
1300;SDS011;59099;48.806;9.160;2022-10-31T01:51:41;10.40;;;5.97;;
1300;SDS011;59099;48.806;9.160;2022-10-31T01:54:15;6.63;;;4.60;;
1300;SDS011;59099;48.806;9.160;2022-10-31T01:56:44;6.60;;;4.50;;
1300;SDS011;59099;48.806;9.160;2022-10-31T01:59:14;6.60;;;4.77;;
1300;SDS011;59099;48.806;9.160;2022-10-31T02:01:43;5.80;;;3.87;;
1300;SDS011;59099;48.806;9.160;2022-10-31T02:04:09;4.60;;;4.10;;
1300;SDS011;59099;48.806;9.160;2022-10-31T02:06:45;5.47;;;4.10;;
1300;SDS011;59099;48.806;9.160;2022-10-31T02:09:14;6.30;;;4.60;;
1300;SDS011;59099;48.806;9.160;2022-10-31T02:11:42;5.60;;;4.50;;
1300;SDS011;59099;48.806;9.160;2022-10-31T02:14:10;4.57;;;4.07;;
1300;SDS011;59099;48.806;9.160;2022-10-31T02:16:36;9.30;;;4.50;;
1300;SDS011;59099;48.806;9.160;2022-10-31T02:19:02;6.77;;;4.80;;
1300;SDS011;59099;48.806;9.160;2022-10-31T02:32:34;13.03;;;5.00;;
1300;SDS011;59099;48.806;9.160;2022-10-31T02:41:03;10.80;;;4.67;;
1300;SDS011;59099;48.806;9.160;2022-10-31T02:49:00;7.10;;;4.83;;
1300;SDS011;59099;48.806;9.160;2022-10-31T02:51:43;11.90;;;4.50;;
1300;SDS011;59099;48.806;9.160;2022-10-31T02:54:43;7.67;;;3.63;;
1300;SDS011;59099;48.806;9.160;2022-10-31T02:57:03;7.00;;;4.50;;
1300;SDS011;59099;48.806;9.160;2022-10-31T02:59:31;4.97;;;4.47;;
1300;SDS011;59099;48.806;9.160;2022-10-31T03:02:47;7.43;;;4.50;;
1300;SDS011;59099;48.806;9.160;2022-10-31T03:08:06;5.33;;;4.53;;
1300;SDS011;59099;48.806;9.160;2022-10-31T03:13:32;8.90;;;4.30;;
1300;SDS011;59099;48.806;9.160;2022-10-31T03:16:07;4.50;;;4.10;;
1300;SDS011;59099;48.806;9.160;2022-10-31T03:18:51;13.00;;;5.10;;
1300;SDS011;59099;48.806;9.160;2022-10-31T03:21:40;9.80;;;4.57;;
1300;SDS011;59099;48.806;9.160;2022-10-31T03:24:16;8.50;;;4.23;;
1300;SDS011;59099;48.806;9.160;2022-10-31T03:26:49;8.40;;;5.10;;
1300;SDS011;59099;48.806;9.160;2022-10-31T03:29:20;8.83;;;4.30;;
1300;SDS011;59099;48.806;9.160;2022-10-31T03:31:59;6.70;;;4.17;;
1300;SDS011;59099;48.806;9.160;2022-10-31T03:34:29;5.27;;;4.30;;
1300;SDS011;59099;48.806;9.160;2022-10-31T03:36:57;6.90;;;4.33;;
1300;SDS011;59099;48.806;9.160;2022-10-31T03:39:27;8.90;;;4.90;;
1300;SDS011;59099;48.806;9.160;2022-10-31T03:41:59;5.07;;;4.50;;
1300;SDS011;59099;48.806;9.160;2022-10-31T03:44:28;6.87;;;4.13;;
1300;SDS011;59099;48.806;9.160;2022-10-31T03:46:59;8.30;;;4.60;;
1300;SDS011;59099;48.806;9.160;2022-10-31T03:49:26;7.33;;;4.50;;
1300;SDS011;59099;48.806;9.160;2022-10-31T03:54:43;6.33;;;4.83;;
1300;SDS011;59099;48.806;9.160;2022-10-31T03:57:27;6.93;;;4.53;;
1300;SDS011;59099;48.806;9.160;2022-10-31T04:00:09;7.80;;;4.47;;
1300;SDS011;59099;48.806;9.160;2022-10-31T04:02:51;6.20;;;3.60;;
1300;SDS011;59099;48.806;9.160;2022-10-31T04:05:27;5.13;;;4.63;;
1300;SDS011;59099;48.806;9.160;2022-10-31T04:07:58;7.80;;;3.80;;
1300;SDS011;59099;48.806;9.160;2022-10-31T04:10:26;5.30;;;4.20;;
1300;SDS011;59099;48.806;9.160;2022-10-31T04:12:55;5.70;;;4.70;;
1300;SDS011;59099;48.806;9.160;2022-10-31T04:15:32;6.43;;;3.80;;
1300;SDS011;59099;48.806;9.160;2022-10-31T04:18:00;4.47;;;3.70;;
1300;SDS011;59099;48.806;9.160;2022-10-31T04:20:33;9.50;;;5.20;;
1300;SDS011;59099;48.806;9.160;2022-10-31T04:23:04;7.33;;;5.40;;
1300;SDS011;59099;48.806;9.160;2022-10-31T04:25:42;6.10;;;4.57;;
1300;SDS011;59099;48.806;9.160;2022-10-31T04:28:08;5.90;;;3.93;;
1300;SDS011;59099;48.806;9.160;2022-10-31T04:30:33;11.67;;;4.27;;
1300;SDS011;59099;48.806;9.160;2022-10-31T04:32:59;6.60;;;4.47;;
1300;SDS011;59099;48.806;9.160;2022-10-31T04:35:25;6.30;;;5.30;;
1300;SDS011;59099;48.806;9.160;2022-10-31T04:37:53;9.20;;;5.83;;
1300;SDS011;59099;48.806;9.160;2022-10-31T04:40:19;6.73;;;4.70;;
1300;SDS011;59099;48.806;9.160;2022-10-31T04:43:03;5.97;;;4.13;;
1300;SDS011;59099;48.806;9.160;2022-10-31T04:45:29;5.83;;;4.40;;
1300;SDS011;59099;48.806;9.160;2022-10-31T04:47:55;7.20;;;3.77;;
1300;SDS011;59099;48.806;9.160;2022-10-31T04:50:22;7.10;;;4.00;;
1300;SDS011;59099;48.806;9.160;2022-10-31T04:52:47;9.93;;;5.10;;
1300;SDS011;59099;48.806;9.160;2022-10-31T04:55:20;9.07;;;4.50;;
1300;SDS011;59099;48.806;9.160;2022-10-31T04:58:08;9.20;;;4.60;;
1300;SDS011;59099;48.806;9.160;2022-10-31T05:00:34;5.70;;;3.50;;
1300;SDS011;59099;48.806;9.160;2022-10-31T05:03:00;6.80;;;5.37;;
1300;SDS011;59099;48.806;9.160;2022-10-31T05:05:28;7.57;;;4.53;;
1300;SDS011;59099;48.806;9.160;2022-10-31T05:07:57;6.67;;;4.73;;
1300;SDS011;59099;48.806;9.160;2022-10-31T05:10:25;7.87;;;5.00;;
1300;SDS011;59099;48.806;9.160;2022-10-31T05:12:58;5.73;;;4.63;;
1300;SDS011;59099;48.806;9.160;2022-10-31T05:15:47;4.40;;;4.00;;
1300;SDS011;59099;48.806;9.160;2022-10-31T05:18:31;6.63;;;4.70;;
1300;SDS011;59099;48.806;9.160;2022-10-31T05:21:12;5.17;;;4.40;;
1300;SDS011;59099;48.806;9.160;2022-10-31T05:23:44;7.47;;;5.17;;
1300;SDS011;59099;48.806;9.160;2022-10-31T05:26:10;7.40;;;4.13;;
1300;SDS011;59099;48.806;9.160;2022-10-31T05:28:36;4.80;;;3.93;;
1300;SDS011;59099;48.806;9.160;2022-10-31T05:31:02;6.90;;;5.47;;
1300;SDS011;59099;48.806;9.160;2022-10-31T05:33:29;5.80;;;4.03;;
1300;SDS011;59099;48.806;9.160;2022-10-31T05:36:24;6.73;;;4.87;;
1300;SDS011;59099;48.806;9.160;2022-10-31T05:38:56;8.37;;;4.43;;
1300;SDS011;59099;48.806;9.160;2022-10-31T05:41:24;6.13;;;3.30;;
1300;SDS011;59099;48.806;9.160;2022-10-31T05:43:52;7.20;;;5.17;;
1300;SDS011;59099;48.806;9.160;2022-10-31T05:46:23;7.03;;;4.80;;
1300;SDS011;59099;48.806;9.160;2022-10-31T05:49:04;4.60;;;3.80;;
1300;SDS011;59099;48.806;9.160;2022-10-31T05:51:48;8.00;;;4.90;;
1300;SDS011;59099;48.806;9.160;2022-10-31T05:54:14;5.33;;;4.37;;
1300;SDS011;59099;48.806;9.160;2022-10-31T05:56:42;8.90;;;4.50;;
1300;SDS011;59099;48.806;9.160;2022-10-31T05:59:08;7.30;;;4.40;;
1300;SDS011;59099;48.806;9.160;2022-10-31T06:01:34;6.60;;;4.10;;
1300;SDS011;59099;48.806;9.160;2022-10-31T06:04:04;8.10;;;5.37;;
1300;SDS011;59099;48.806;9.160;2022-10-31T06:06:31;8.03;;;4.40;;
1300;SDS011;59099;48.806;9.160;2022-10-31T06:08:59;8.50;;;4.40;;
1300;SDS011;59099;48.806;9.160;2022-10-31T06:11:26;5.70;;;5.20;;
1300;SDS011;59099;48.806;9.160;2022-10-31T06:14:00;6.30;;;4.30;;
1300;SDS011;59099;48.806;9.160;2022-10-31T06:16:41;7.70;;;5.70;;
1300;SDS011;59099;48.806;9.160;2022-10-31T06:19:27;15.13;;;7.77;;
1300;SDS011;59099;48.806;9.160;2022-10-31T06:21:53;8.13;;;6.00;;
1300;SDS011;59099;48.806;9.160;2022-10-31T06:24:18;7.47;;;5.37;;
1300;SDS011;59099;48.806;9.160;2022-10-31T06:27:13;6.20;;;4.87;;
1300;SDS011;59099;48.806;9.160;2022-10-31T06:29:40;5.47;;;4.63;;
1300;SDS011;59099;48.806;9.160;2022-10-31T06:32:10;7.33;;;5.10;;
1300;SDS011;59099;48.806;9.160;2022-10-31T06:34:40;7.90;;;5.00;;
1300;SDS011;59099;48.806;9.160;2022-10-31T06:37:18;12.50;;;6.00;;
1300;SDS011;59099;48.806;9.160;2022-10-31T06:39:47;6.83;;;5.00;;
1300;SDS011;59099;48.806;9.160;2022-10-31T06:42:15;5.67;;;5.07;;
1300;SDS011;59099;48.806;9.160;2022-10-31T06:44:42;6.83;;;5.10;;
1300;SDS011;59099;48.806;9.160;2022-10-31T06:47:26;11.63;;;6.00;;
1300;SDS011;59099;48.806;9.160;2022-10-31T06:50:18;8.73;;;5.90;;
1300;SDS011;59099;48.806;9.160;2022-10-31T06:52:55;6.60;;;5.70;;
1300;SDS011;59099;48.806;9.160;2022-10-31T06:55:22;8.13;;;5.10;;
1300;SDS011;59099;48.806;9.160;2022-10-31T06:57:56;6.27;;;5.20;;
1300;SDS011;59099;48.806;9.160;2022-10-31T07:00:26;10.77;;;6.87;;
1300;SDS011;59099;48.806;9.160;2022-10-31T07:03:03;10.23;;;6.10;;
1300;SDS011;59099;48.806;9.160;2022-10-31T07:05:32;7.07;;;5.60;;
1300;SDS011;59099;48.806;9.160;2022-10-31T07:07:59;7.90;;;5.77;;
1300;SDS011;59099;48.806;9.160;2022-10-31T07:10:27;7.63;;;6.10;;
1300;SDS011;59099;48.806;9.160;2022-10-31T07:13:00;6.77;;;4.37;;
1300;SDS011;59099;48.806;9.160;2022-10-31T07:15:37;7.30;;;5.03;;
1300;SDS011;59099;48.806;9.160;2022-10-31T07:18:04;7.97;;;5.53;;
1300;SDS011;59099;48.806;9.160;2022-10-31T07:20:33;9.30;;;5.43;;
1300;SDS011;59099;48.806;9.160;2022-10-31T07:23:01;7.07;;;5.27;;
1300;SDS011;59099;48.806;9.160;2022-10-31T07:25:31;13.00;;;5.97;;
1300;SDS011;59099;48.806;9.160;2022-10-31T07:28:14;10.80;;;6.07;;
1300;SDS011;59099;48.806;9.160;2022-10-31T07:30:48;7.10;;;5.80;;
1300;SDS011;59099;48.806;9.160;2022-10-31T07:33:19;7.20;;;5.20;;
1300;SDS011;59099;48.806;9.160;2022-10-31T07:36:14;6.63;;;5.83;;
1300;SDS011;59099;48.806;9.160;2022-10-31T07:38:43;7.20;;;5.30;;
1300;SDS011;59099;48.806;9.160;2022-10-31T07:41:09;7.63;;;6.40;;
1300;SDS011;59099;48.806;9.160;2022-10-31T07:43:40;6.70;;;5.40;;
1300;SDS011;59099;48.806;9.160;2022-10-31T07:46:32;8.60;;;6.00;;
1300;SDS011;59099;48.806;9.160;2022-10-31T07:49:18;12.87;;;7.87;;
1300;SDS011;59099;48.806;9.160;2022-10-31T07:52:02;7.00;;;5.33;;
1300;SDS011;59099;48.806;9.160;2022-10-31T07:54:54;8.90;;;6.67;;
1300;SDS011;59099;48.806;9.160;2022-10-31T07:57:22;7.63;;;5.47;;
1300;SDS011;59099;48.806;9.160;2022-10-31T07:59:51;11.60;;;5.90;;
1300;SDS011;59099;48.806;9.160;2022-10-31T08:02:17;9.30;;;6.20;;
1300;SDS011;59099;48.806;9.160;2022-10-31T08:05:02;6.50;;;5.90;;
1300;SDS011;59099;48.806;9.160;2022-10-31T08:07:35;12.03;;;5.67;;
1300;SDS011;59099;48.806;9.160;2022-10-31T08:10:04;8.50;;;7.03;;
1300;SDS011;59099;48.806;9.160;2022-10-31T08:12:33;8.03;;;6.13;;
1300;SDS011;59099;48.806;9.160;2022-10-31T08:15:07;8.90;;;5.70;;
1300;SDS011;59099;48.806;9.160;2022-10-31T08:17:37;6.57;;;5.83;;
1300;SDS011;59099;48.806;9.160;2022-10-31T08:20:04;8.27;;;7.37;;
1300;SDS011;59099;48.806;9.160;2022-10-31T08:22:36;8.33;;;6.00;;
1300;SDS011;59099;48.806;9.160;2022-10-31T08:25:03;7.50;;;5.80;;
1300;SDS011;59099;48.806;9.160;2022-10-31T08:27:29;6.70;;;5.87;;
1300;SDS011;59099;48.806;9.160;2022-10-31T08:29:58;6.03;;;5.53;;
1300;SDS011;59099;48.806;9.160;2022-10-31T08:32:24;9.23;;;6.50;;
1300;SDS011;59099;48.806;9.160;2022-10-31T08:35:08;7.33;;;5.70;;
1300;SDS011;59099;48.806;9.160;2022-10-31T08:37:53;7.70;;;7.00;;
1300;SDS011;59099;48.806;9.160;2022-10-31T08:40:25;9.80;;;6.93;;
1300;SDS011;59099;48.806;9.160;2022-10-31T08:42:55;9.67;;;7.00;;
1300;SDS011;59099;48.806;9.160;2022-10-31T08:45:25;12.23;;;8.63;;
1300;SDS011;59099;48.806;9.160;2022-10-31T08:47:52;14.00;;;8.13;;
1300;SDS011;59099;48.806;9.160;2022-10-31T08:50:22;10.20;;;9.20;;
1300;SDS011;59099;48.806;9.160;2022-10-31T08:52:47;9.20;;;7.97;;
1300;SDS011;59099;48.806;9.160;2022-10-31T08:55:13;8.73;;;7.80;;
1300;SDS011;59099;48.806;9.160;2022-10-31T08:57:58;11.07;;;8.00;;
1300;SDS011;59099;48.806;9.160;2022-10-31T09:00:31;13.23;;;8.23;;
1300;SDS011;59099;48.806;9.160;2022-10-31T09:03:06;10.60;;;7.40;;
1300;SDS011;59099;48.806;9.160;2022-10-31T09:05:37;8.60;;;7.07;;
1300;SDS011;59099;48.806;9.160;2022-10-31T09:08:04;12.90;;;10.47;;
1300;SDS011;59099;48.806;9.160;2022-10-31T09:10:31;11.77;;;8.57;;
1300;SDS011;59099;48.806;9.160;2022-10-31T09:12:59;9.30;;;8.30;;
1300;SDS011;59099;48.806;9.160;2022-10-31T09:15:50;10.67;;;7.23;;
1300;SDS011;59099;48.806;9.160;2022-10-31T09:28:51;13.03;;;6.87;;
1300;SDS011;59099;48.806;9.160;2022-10-31T09:31:17;10.20;;;7.30;;
1300;SDS011;59099;48.806;9.160;2022-10-31T09:34:18;7.13;;;6.30;;
1300;SDS011;59099;48.806;9.160;2022-10-31T09:36:48;7.20;;;6.50;;
1300;SDS011;59099;48.806;9.160;2022-10-31T09:39:19;9.20;;;6.10;;
1300;SDS011;59099;48.806;9.160;2022-10-31T09:47:40;10.10;;;6.90;;
1300;SDS011;59099;48.806;9.160;2022-10-31T09:50:38;10.10;;;6.50;;
1300;SDS011;59099;48.806;9.160;2022-10-31T09:56:15;8.00;;;5.43;;
1300;SDS011;59099;48.806;9.160;2022-10-31T09:58:45;8.87;;;5.63;;
1300;SDS011;59099;48.806;9.160;2022-10-31T10:03:57;7.77;;;5.67;;
1300;SDS011;59099;48.806;9.160;2022-10-31T10:06:49;7.17;;;6.40;;
1300;SDS011;59099;48.806;9.160;2022-10-31T10:09:45;7.47;;;6.73;;
1300;SDS011;59099;48.806;9.160;2022-10-31T10:12:37;8.70;;;6.07;;
1300;SDS011;59099;48.806;9.160;2022-10-31T10:20:42;8.60;;;6.20;;
1300;SDS011;59099;48.806;9.160;2022-10-31T10:23:20;7.07;;;5.87;;
1300;SDS011;59099;48.806;9.160;2022-10-31T10:25:48;6.50;;;5.90;;
1300;SDS011;59099;48.806;9.160;2022-10-31T10:28:23;7.60;;;5.97;;
1300;SDS011;59099;48.806;9.160;2022-10-31T10:31:05;7.83;;;5.87;;
1300;SDS011;59099;48.806;9.160;2022-10-31T10:36:20;6.30;;;5.70;;
1300;SDS011;59099;48.806;9.160;2022-10-31T10:39:00;8.80;;;7.13;;
1300;SDS011;59099;48.806;9.160;2022-10-31T10:41:39;8.33;;;6.50;;
1300;SDS011;59099;48.806;9.160;2022-10-31T10:44:10;8.20;;;5.90;;
1300;SDS011;59099;48.806;9.160;2022-10-31T10:46:42;11.10;;;6.47;;
1300;SDS011;59099;48.806;9.160;2022-10-31T10:49:43;10.37;;;6.67;;
1300;SDS011;59099;48.806;9.160;2022-10-31T11:00:30;8.00;;;6.13;;
1300;SDS011;59099;48.806;9.160;2022-10-31T11:02:56;9.60;;;6.20;;
1300;SDS011;59099;48.806;9.160;2022-10-31T11:07:57;6.60;;;5.70;;
1300;SDS011;59099;48.806;9.160;2022-10-31T11:10:22;6.37;;;5.77;;
1300;SDS011;59099;48.806;9.160;2022-10-31T11:13:06;6.77;;;6.07;;
1300;SDS011;59099;48.806;9.160;2022-10-31T11:15:53;10.33;;;7.57;;
1300;SDS011;59099;48.806;9.160;2022-10-31T11:18:42;9.83;;;6.30;;
1300;SDS011;59099;48.806;9.160;2022-10-31T11:21:21;7.10;;;6.00;;
1300;SDS011;59099;48.806;9.160;2022-10-31T11:23:50;9.73;;;7.13;;
1300;SDS011;59099;48.806;9.160;2022-10-31T11:26:26;6.70;;;5.90;;
1300;SDS011;59099;48.806;9.160;2022-10-31T11:28:59;14.80;;;6.00;;
1300;SDS011;59099;48.806;9.160;2022-10-31T11:31:25;7.47;;;6.07;;
1300;SDS011;59099;48.806;9.160;2022-10-31T11:33:55;12.47;;;7.03;;
1300;SDS011;59099;48.806;9.160;2022-10-31T11:36:32;14.17;;;6.03;;
1300;SDS011;59099;48.806;9.160;2022-10-31T11:39:03;8.20;;;5.93;;
1300;SDS011;59099;48.806;9.160;2022-10-31T11:41:35;10.27;;;7.17;;
1300;SDS011;59099;48.806;9.160;2022-10-31T11:46:48;8.27;;;5.83;;
1300;SDS011;59099;48.806;9.160;2022-10-31T11:49:27;7.80;;;7.10;;
1300;SDS011;59099;48.806;9.160;2022-10-31T11:51:57;9.27;;;6.60;;
1300;SDS011;59099;48.806;9.160;2022-10-31T11:54:29;9.53;;;7.13;;
1300;SDS011;59099;48.806;9.160;2022-10-31T11:57:00;10.70;;;6.70;;
1300;SDS011;59099;48.806;9.160;2022-10-31T11:59:32;12.90;;;7.60;;
1300;SDS011;59099;48.806;9.160;2022-10-31T12:01:59;9.53;;;7.70;;
1300;SDS011;59099;48.806;9.160;2022-10-31T12:04:38;7.07;;;6.10;;
1300;SDS011;59099;48.806;9.160;2022-10-31T12:07:08;9.23;;;6.53;;
1300;SDS011;59099;48.806;9.160;2022-10-31T12:09:35;12.60;;;6.67;;
1300;SDS011;59099;48.806;9.160;2022-10-31T12:17:29;7.90;;;6.30;;
1300;SDS011;59099;48.806;9.160;2022-10-31T12:20:21;11.13;;;6.63;;
1300;SDS011;59099;48.806;9.160;2022-10-31T12:23:16;8.00;;;5.80;;
1300;SDS011;59099;48.806;9.160;2022-10-31T12:37:50;7.30;;;6.03;;
1300;SDS011;59099;48.806;9.160;2022-10-31T12:59:45;14.50;;;7.97;;
1300;SDS011;59099;48.806;9.160;2022-10-31T13:08:03;12.00;;;7.43;;
1300;SDS011;59099;48.806;9.160;2022-10-31T13:13:07;8.17;;;6.90;;
1300;SDS011;59099;48.806;9.160;2022-10-31T13:15:45;7.87;;;6.93;;
1300;SDS011;59099;48.806;9.160;2022-10-31T13:18:25;9.23;;;7.40;;
1300;SDS011;59099;48.806;9.160;2022-10-31T13:20:54;7.40;;;6.47;;
1300;SDS011;59099;48.806;9.160;2022-10-31T13:23:34;9.27;;;7.30;;
1300;SDS011;59099;48.806;9.160;2022-10-31T13:26:12;9.50;;;7.40;;
1300;SDS011;59099;48.806;9.160;2022-10-31T13:28:54;11.27;;;7.13;;
1300;SDS011;59099;48.806;9.160;2022-10-31T13:31:34;15.10;;;7.90;;
1300;SDS011;59099;48.806;9.160;2022-10-31T13:34:11;12.53;;;7.30;;
1300;SDS011;59099;48.806;9.160;2022-10-31T13:36:56;15.80;;;7.63;;
1300;SDS011;59099;48.806;9.160;2022-10-31T13:42:18;11.70;;;8.53;;
1300;SDS011;59099;48.806;9.160;2022-10-31T13:45:15;8.80;;;6.77;;
1300;SDS011;59099;48.806;9.160;2022-10-31T13:47:42;8.80;;;6.40;;
1300;SDS011;59099;48.806;9.160;2022-10-31T13:50:20;10.23;;;7.20;;
1300;SDS011;59099;48.806;9.160;2022-10-31T13:52:48;11.20;;;7.70;;
1300;SDS011;59099;48.806;9.160;2022-10-31T13:58:27;8.37;;;6.63;;
1300;SDS011;59099;48.806;9.160;2022-10-31T14:01:12;12.03;;;7.13;;
1300;SDS011;59099;48.806;9.160;2022-10-31T14:03:45;9.67;;;6.87;;
1300;SDS011;59099;48.806;9.160;2022-10-31T14:06:20;10.90;;;7.23;;
1300;SDS011;59099;48.806;9.160;2022-10-31T14:09:25;9.93;;;7.10;;
1300;SDS011;59099;48.806;9.160;2022-10-31T14:11:57;9.60;;;7.27;;
1300;SDS011;59099;48.806;9.160;2022-10-31T14:14:28;7.53;;;6.63;;
1300;SDS011;59099;48.806;9.160;2022-10-31T14:16:58;12.77;;;7.40;;
1300;SDS011;59099;48.806;9.160;2022-10-31T14:19:25;8.77;;;7.20;;
1300;SDS011;59099;48.806;9.160;2022-10-31T14:21:52;11.73;;;7.03;;
1300;SDS011;59099;48.806;9.160;2022-10-31T14:26:54;8.87;;;7.00;;
1300;SDS011;59099;48.806;9.160;2022-10-31T14:29:26;7.57;;;6.60;;
1300;SDS011;59099;48.806;9.160;2022-10-31T14:34:28;9.07;;;7.00;;
1300;SDS011;59099;48.806;9.160;2022-10-31T14:53:01;11.27;;;6.90;;
1300;SDS011;59099;48.806;9.160;2022-10-31T14:55:29;11.90;;;8.47;;
1300;SDS011;59099;48.806;9.160;2022-10-31T14:58:02;13.40;;;9.00;;
1300;SDS011;59099;48.806;9.160;2022-10-31T15:00:31;13.43;;;8.60;;
1300;SDS011;59099;48.806;9.160;2022-10-31T15:05:51;11.47;;;7.70;;
1300;SDS011;59099;48.806;9.160;2022-10-31T15:11:02;13.77;;;7.17;;
1300;SDS011;59099;48.806;9.160;2022-10-31T15:13:35;9.97;;;7.03;;
1300;SDS011;59099;48.806;9.160;2022-10-31T15:16:07;8.90;;;6.33;;
1300;SDS011;59099;48.806;9.160;2022-10-31T15:18:36;8.47;;;6.20;;
1300;SDS011;59099;48.806;9.160;2022-10-31T15:21:11;8.63;;;7.77;;
1300;SDS011;59099;48.806;9.160;2022-10-31T15:23:41;9.00;;;7.13;;
1300;SDS011;59099;48.806;9.160;2022-10-31T15:26:14;8.87;;;7.30;;
1300;SDS011;59099;48.806;9.160;2022-10-31T15:28:43;8.50;;;7.27;;
1300;SDS011;59099;48.806;9.160;2022-10-31T15:31:16;12.50;;;8.50;;
1300;SDS011;59099;48.806;9.160;2022-10-31T15:33:44;25.33;;;17.70;;
1300;SDS011;59099;48.806;9.160;2022-10-31T15:36:21;27.30;;;17.40;;
1300;SDS011;59099;48.806;9.160;2022-10-31T15:38:48;28.43;;;17.60;;
1300;SDS011;59099;48.806;9.160;2022-10-31T15:44:26;34.63;;;22.00;;
1300;SDS011;59099;48.806;9.160;2022-10-31T15:47:02;30.90;;;16.27;;
1300;SDS011;59099;48.806;9.160;2022-10-31T15:52:10;14.70;;;8.93;;
1300;SDS011;59099;48.806;9.160;2022-10-31T15:54:48;9.43;;;7.87;;
1300;SDS011;59099;48.806;9.160;2022-10-31T15:57:18;10.03;;;7.33;;
1300;SDS011;59099;48.806;9.160;2022-10-31T15:59:47;14.53;;;8.13;;
1300;SDS011;59099;48.806;9.160;2022-10-31T16:02:17;12.03;;;8.30;;
1300;SDS011;59099;48.806;9.160;2022-10-31T16:04:49;9.80;;;7.30;;
1300;SDS011;59099;48.806;9.160;2022-10-31T16:07:18;10.90;;;7.93;;
1300;SDS011;59099;48.806;9.160;2022-10-31T16:09:55;12.83;;;8.63;;
1300;SDS011;59099;48.806;9.160;2022-10-31T16:12:23;9.67;;;8.60;;
1300;SDS011;59099;48.806;9.160;2022-10-31T16:14:50;14.53;;;7.70;;
1300;SDS011;59099;48.806;9.160;2022-10-31T16:17:19;14.37;;;7.10;;
1300;SDS011;59099;48.806;9.160;2022-10-31T16:19:51;8.27;;;7.00;;
1300;SDS011;59099;48.806;9.160;2022-10-31T16:22:22;10.60;;;7.97;;
1300;SDS011;59099;48.806;9.160;2022-10-31T16:27:39;9.83;;;7.63;;
1300;SDS011;59099;48.806;9.160;2022-10-31T16:32:54;9.50;;;8.10;;
1300;SDS011;59099;48.806;9.160;2022-10-31T16:35:35;9.67;;;7.97;;
1300;SDS011;59099;48.806;9.160;2022-10-31T16:38:03;17.00;;;13.37;;
1300;SDS011;59099;48.806;9.160;2022-10-31T16:40:30;11.60;;;9.60;;
1300;SDS011;59099;48.806;9.160;2022-10-31T16:42:57;13.93;;;9.90;;
1300;SDS011;59099;48.806;9.160;2022-10-31T16:45:25;12.23;;;10.30;;
1300;SDS011;59099;48.806;9.160;2022-10-31T16:47:53;14.20;;;12.33;;
1300;SDS011;59099;48.806;9.160;2022-10-31T16:50:26;18.40;;;15.07;;
1300;SDS011;59099;48.806;9.160;2022-10-31T16:52:52;15.50;;;13.40;;
1300;SDS011;59099;48.806;9.160;2022-10-31T16:55:19;24.73;;;14.30;;
1300;SDS011;59099;48.806;9.160;2022-10-31T16:57:47;17.03;;;13.67;;
1300;SDS011;59099;48.806;9.160;2022-10-31T17:00:16;13.63;;;11.33;;
1300;SDS011;59099;48.806;9.160;2022-10-31T17:02:44;14.00;;;10.63;;
1300;SDS011;59099;48.806;9.160;2022-10-31T17:05:11;20.10;;;11.10;;
1300;SDS011;59099;48.806;9.160;2022-10-31T17:07:38;11.63;;;10.43;;
1300;SDS011;59099;48.806;9.160;2022-10-31T17:10:05;17.07;;;12.67;;
1300;SDS011;59099;48.806;9.160;2022-10-31T17:12:31;15.57;;;13.83;;
1300;SDS011;59099;48.806;9.160;2022-10-31T17:14:57;18.00;;;16.17;;
1300;SDS011;59099;48.806;9.160;2022-10-31T17:17:23;19.00;;;16.97;;
1300;SDS011;59099;48.806;9.160;2022-10-31T17:19:48;21.77;;;19.53;;
1300;SDS011;59099;48.806;9.160;2022-10-31T17:22:14;20.57;;;18.57;;
1300;SDS011;59099;48.806;9.160;2022-10-31T17:24:40;20.87;;;18.90;;
1300;SDS011;59099;48.806;9.160;2022-10-31T17:27:05;28.07;;;19.30;;
1300;SDS011;59099;48.806;9.160;2022-10-31T17:29:31;19.70;;;17.73;;
1300;SDS011;59099;48.806;9.160;2022-10-31T17:31:57;18.73;;;16.97;;
1300;SDS011;59099;48.806;9.160;2022-10-31T17:34:24;19.93;;;15.20;;
1300;SDS011;59099;48.806;9.160;2022-10-31T17:36:50;16.87;;;14.53;;
1300;SDS011;59099;48.806;9.160;2022-10-31T17:39:20;19.80;;;16.00;;
1300;SDS011;59099;48.806;9.160;2022-10-31T17:41:50;18.83;;;16.00;;
1300;SDS011;59099;48.806;9.160;2022-10-31T17:44:16;20.73;;;16.50;;
1300;SDS011;59099;48.806;9.160;2022-10-31T17:46:43;20.50;;;14.77;;
1300;SDS011;59099;48.806;9.160;2022-10-31T17:49:13;17.40;;;14.47;;
1300;SDS011;59099;48.806;9.160;2022-10-31T17:51:39;23.93;;;14.93;;
1300;SDS011;59099;48.806;9.160;2022-10-31T17:54:04;19.10;;;14.90;;
1300;SDS011;59099;48.806;9.160;2022-10-31T17:56:32;21.23;;;19.13;;
1300;SDS011;59099;48.806;9.160;2022-10-31T17:58:58;42.27;;;37.97;;
1300;SDS011;59099;48.806;9.160;2022-10-31T18:01:24;39.30;;;35.53;;
1300;SDS011;59099;48.806;9.160;2022-10-31T18:03:50;40.60;;;36.60;;
1300;SDS011;59099;48.806;9.160;2022-10-31T18:06:15;26.10;;;23.47;;
1300;SDS011;59099;48.806;9.160;2022-10-31T18:08:41;31.40;;;28.30;;